Montreal / Saint-Hubert Airport

CYHU | YHU

Montreal , Quebec , Canada

Thursday, September 19th, 2019 | 15:22

Weather

CYHU 191900Z AUTO 27005KT 210V280 9SM SCT046 20/02 A3028 RMK SLP255 DENSITY ALT 300FT

Charts

No Charts Available

Gates

No Gates Available

Runways

3 Available

Events

No events for this airport


New event